createdAt,value
2019-02-05T00:00:55.211Z,2.20
2019-02-05T00:03:59.421Z,2.20
2019-02-05T00:07:03.636Z,2.20
2019-02-05T00:10:07.929Z,2.20
2019-02-05T00:13:12.079Z,2.20
2019-02-05T00:16:16.275Z,2.20
2019-02-05T00:19:20.443Z,2.20
2019-02-05T00:22:24.648Z,2.20
2019-02-05T00:25:28.809Z,2.20
2019-02-05T00:28:33.009Z,2.20
2019-02-05T00:31:37.110Z,2.20
2019-02-05T00:34:41.299Z,2.20
2019-02-05T00:37:45.450Z,2.20
2019-02-05T00:40:49.653Z,2.20
2019-02-05T00:43:53.819Z,2.10
2019-02-05T00:46:58.007Z,2.20
2019-02-05T00:50:02.104Z,2.10
2019-02-05T00:53:06.307Z,2.10
2019-02-05T00:56:17.380Z,2.10
2019-02-05T00:59:17.463Z,2.10
2019-02-05T01:02:21.631Z,2.10
2019-02-05T01:05:26.221Z,2.10
2019-02-05T01:08:30.343Z,2.10
2019-02-05T01:11:34.903Z,2.20
2019-02-05T01:14:39.355Z,2.10
2019-02-05T01:17:43.552Z,2.20
2019-02-05T01:20:47.720Z,2.10
2019-02-05T01:23:52.195Z,2.10
2019-02-05T01:26:56.365Z,2.10
2019-02-05T01:30:00.511Z,2.10
2019-02-05T01:33:04.665Z,2.10
2019-02-05T01:36:08.776Z,2.10
2019-02-05T01:39:13.066Z,2.20
2019-02-05T01:42:17.245Z,2.20
2019-02-05T01:45:23.064Z,2.20
2019-02-05T01:48:27.316Z,2.10
2019-02-05T01:51:31.401Z,2.10
2019-02-05T01:54:35.591Z,2.10
2019-02-05T01:57:39.759Z,2.10
2019-02-05T02:00:43.960Z,2.10
2019-02-05T02:03:48.126Z,2.10
2019-02-05T02:06:52.324Z,2.10
2019-02-05T02:09:56.532Z,2.10
2019-02-05T02:13:00.736Z,2.10
2019-02-05T02:16:04.927Z,2.10
2019-02-05T02:19:09.036Z,2.10
2019-02-05T02:22:13.198Z,2.10
2019-02-05T02:25:17.389Z,2.10
2019-02-05T02:28:21.546Z,2.10
2019-02-05T02:31:25.750Z,2.10
2019-02-05T02:34:29.908Z,2.10
2019-02-05T02:37:34.094Z,2.10
2019-02-05T02:40:38.320Z,2.10
2019-02-05T02:43:42.564Z,2.10
2019-02-05T02:46:46.723Z,2.10
2019-02-05T02:49:50.915Z,2.10
2019-02-05T02:52:55.067Z,2.10
2019-02-05T02:55:59.219Z,2.10
2019-02-05T02:59:03.368Z,2.10
2019-02-05T03:02:07.579Z,2.10
2019-02-05T03:05:13.236Z,2.10
2019-02-05T03:08:17.434Z,2.10
2019-02-05T03:11:21.607Z,2.10
2019-02-05T03:14:25.829Z,2.10
2019-02-05T03:17:29.992Z,2.10
2019-02-05T03:20:34.631Z,2.00
2019-02-05T03:23:38.788Z,2.00
2019-02-05T03:26:42.969Z,2.10
2019-02-05T03:29:47.123Z,2.10
2019-02-05T03:32:51.566Z,2.00
2019-02-05T03:35:55.723Z,2.00
2019-02-05T03:38:59.907Z,1.90
2019-02-05T03:42:04.445Z,1.90
2019-02-05T03:45:08.645Z,1.90
2019-02-05T03:48:12.822Z,1.80
2019-02-05T03:51:41.700Z,1.80
2019-02-05T03:55:30.087Z,1.80
2019-02-05T03:59:11.463Z,1.70
2019-02-05T04:03:00.212Z,1.60
2019-02-05T04:06:29.956Z,1.60
2019-02-05T04:10:18.299Z,1.50
2019-02-05T04:13:53.596Z,1.50
2019-02-05T04:17:47.482Z,1.40
2019-02-05T04:21:27.849Z,1.40
2019-02-05T04:25:28.955Z,1.40
2019-02-05T04:29:19.422Z,1.40
2019-02-05T04:33:04.498Z,1.30
2019-02-05T04:36:41.476Z,1.30
2019-02-05T04:40:37.381Z,1.20
2019-02-05T04:44:05.100Z,1.20
2019-02-05T04:47:36.889Z,1.20
2019-02-05T04:51:10.943Z,1.10
2019-02-05T04:54:49.117Z,1.10
2019-02-05T04:58:13.928Z,1.10
2019-02-05T05:01:37.153Z,1.00
2019-02-05T05:04:56.224Z,0.90
2019-02-05T05:08:31.393Z,0.80
2019-02-05T05:11:35.593Z,0.80
2019-02-05T05:14:39.816Z,0.80
2019-02-05T05:17:44.202Z,0.80
2019-02-05T05:20:48.371Z,0.70
2019-02-05T05:23:52.700Z,0.70
2019-02-05T05:26:56.869Z,0.60
2019-02-05T05:30:01.084Z,0.60
2019-02-05T05:33:05.251Z,0.60
2019-02-05T05:36:09.632Z,0.60
2019-02-05T05:39:13.803Z,0.50
2019-02-05T05:42:17.995Z,0.50
2019-02-05T05:45:22.520Z,0.40
2019-02-05T05:48:26.636Z,0.40
2019-02-05T05:51:30.890Z,0.40
2019-02-05T05:54:35.599Z,0.30
2019-02-05T05:57:39.766Z,0.30
2019-02-05T06:00:44.014Z,0.20
2019-02-05T06:03:48.473Z,0.20
2019-02-05T06:06:52.763Z,0.20
2019-02-05T06:09:57.985Z,0.20
2019-02-05T06:13:02.502Z,0.20
2019-02-05T06:16:06.803Z,0.20
2019-02-05T06:19:11.014Z,0.10
2019-02-05T06:22:15.651Z,0.10
2019-02-05T06:25:19.932Z,0.10
2019-02-05T06:28:34.393Z,0.00
2019-02-05T06:31:30.059Z,0.00
2019-02-05T06:34:34.255Z,0.00
2019-02-05T06:37:38.455Z,0.00
2019-02-05T06:40:42.829Z,0.00
2019-02-05T06:43:47.145Z,-0.10
2019-02-05T06:46:51.427Z,-0.10
2019-02-05T06:49:55.684Z,-0.10
2019-02-05T06:52:59.857Z,-0.10
2019-02-05T06:56:04.121Z,-0.10
2019-02-05T06:59:08.298Z,-0.10
2019-02-05T07:02:12.510Z,-0.10
2019-02-05T07:05:16.622Z,-0.10
2019-02-05T07:08:20.808Z,-0.10
2019-02-05T07:11:24.964Z,-0.10
2019-02-05T07:14:29.148Z,-0.10
2019-02-05T07:17:33.297Z,0.00
2019-02-05T07:20:37.576Z,0.00
2019-02-05T07:23:41.657Z,0.00
2019-02-05T07:26:45.844Z,0.00
2019-02-05T07:29:50.081Z,0.00
2019-02-05T07:32:54.270Z,0.10
2019-02-05T07:35:58.334Z,0.10
2019-02-05T07:39:02.445Z,0.10
2019-02-05T07:42:06.808Z,0.10
2019-02-05T07:45:14.377Z,0.20
2019-02-05T07:48:18.450Z,0.20
2019-02-05T07:51:22.862Z,0.30
2019-02-05T07:54:26.860Z,0.30
2019-02-05T07:57:30.995Z,0.30
2019-02-05T08:00:35.053Z,0.40
2019-02-05T08:03:39.173Z,0.40
2019-02-05T08:06:43.326Z,0.50
2019-02-05T08:09:47.462Z,0.60
2019-02-05T08:12:51.538Z,0.60
2019-02-05T08:15:55.753Z,0.70
2019-02-05T08:18:59.831Z,0.70
2019-02-05T08:22:04.101Z,0.80
2019-02-05T08:25:11.407Z,0.90
2019-02-05T08:28:15.608Z,0.90
2019-02-05T08:31:19.605Z,1.00
2019-02-05T08:34:24.094Z,1.10
2019-02-05T08:37:28.235Z,1.10
2019-02-05T08:40:32.340Z,1.20
2019-02-05T08:43:36.721Z,1.20
2019-02-05T08:46:40.830Z,1.30
2019-02-05T08:49:44.984Z,1.30
2019-02-05T08:52:49.225Z,1.40
2019-02-05T08:55:53.287Z,1.40
2019-02-05T08:58:57.526Z,1.50
2019-02-05T09:02:01.592Z,1.50
2019-02-05T09:05:05.948Z,1.60
2019-02-05T09:08:10.005Z,1.70
2019-02-05T09:11:14.177Z,1.70
2019-02-05T09:14:18.262Z,1.80
2019-02-05T09:17:24.270Z,1.90
2019-02-05T09:20:28.087Z,2.00
2019-02-05T09:23:32.653Z,2.00
2019-02-05T09:26:36.743Z,2.10
2019-02-05T09:29:40.864Z,2.20
2019-02-05T09:32:45.243Z,2.30
2019-02-05T09:35:49.643Z,2.30
2019-02-05T09:38:53.780Z,2.40
2019-02-05T09:41:57.973Z,2.50
2019-02-05T09:45:02.441Z,2.60
2019-02-05T09:48:06.612Z,2.70
2019-02-05T09:51:10.863Z,2.80
2019-02-05T09:54:15.443Z,2.90
2019-02-05T09:57:19.581Z,3.00
2019-02-05T10:00:29.010Z,3.10
2019-02-05T10:03:33.380Z,3.30
2019-02-05T10:06:37.495Z,3.40
2019-02-05T10:09:41.558Z,3.60
2019-02-05T10:12:46.984Z,3.70
2019-02-05T10:15:51.334Z,3.90
2019-02-05T10:18:55.449Z,4.00
2019-02-05T10:21:59.607Z,4.10
2019-02-05T10:25:03.735Z,4.20
2019-02-05T10:28:08.127Z,4.40
2019-02-05T10:31:12.233Z,4.50
2019-02-05T10:37:39.357Z,4.90
2019-02-05T10:40:43.500Z,5.00
2019-02-05T10:43:47.697Z,5.20
2019-02-05T10:46:51.836Z,5.40
2019-02-05T10:49:55.957Z,5.50
2019-02-05T10:53:00.037Z,5.70
2019-02-05T10:56:04.145Z,5.90
2019-02-05T10:59:08.537Z,6.00
2019-02-05T11:02:12.828Z,6.20
2019-02-05T11:05:20.408Z,6.40
2019-02-05T11:08:24.578Z,6.50
2019-02-05T11:11:28.580Z,6.80
2019-02-05T11:14:32.768Z,7.00
2019-02-05T11:17:37.461Z,7.10
2019-02-05T11:20:41.628Z,7.20
2019-02-05T11:23:45.788Z,7.40
2019-02-05T11:26:50.208Z,7.50
2019-02-05T11:29:54.367Z,7.70
2019-02-05T11:32:58.569Z,7.80
2019-02-05T11:36:02.710Z,7.90
2019-02-05T11:39:13.699Z,7.90
2019-02-05T11:42:17.758Z,8.10
2019-02-05T11:45:22.077Z,8.30
2019-02-05T11:48:26.216Z,8.40
2019-02-05T11:51:30.409Z,8.60
2019-02-05T11:54:34.794Z,8.70
2019-02-05T11:57:38.925Z,8.80
2019-02-05T12:01:00.067Z,8.90
2019-02-05T12:04:04.557Z,9.00
2019-02-05T12:07:08.720Z,9.20
2019-02-05T12:10:12.838Z,9.30
2019-02-05T12:13:16.929Z,9.40
2019-02-05T12:16:21.043Z,9.60
2019-02-05T12:19:25.199Z,9.70
2019-02-05T12:22:29.691Z,9.80
2019-02-05T12:25:33.880Z,9.90
2019-02-05T12:28:38.197Z,10.00
2019-02-05T12:31:42.761Z,10.10
2019-02-05T12:34:46.810Z,10.30
2019-02-05T12:37:50.907Z,10.40
2019-02-05T12:40:55.422Z,10.40
2019-02-05T12:43:59.871Z,10.50
2019-02-05T12:47:04.181Z,10.50
2019-02-05T12:50:12.652Z,10.50
2019-02-05T12:53:16.760Z,10.60
2019-02-05T12:56:20.856Z,10.70
2019-02-05T12:59:25.358Z,10.80
2019-02-05T13:02:29.439Z,10.80
2019-02-05T13:05:33.675Z,10.90
2019-02-05T13:08:38.140Z,10.90
2019-02-05T13:11:42.253Z,10.90
2019-02-05T13:14:46.438Z,10.90
2019-02-05T13:17:50.853Z,10.80
2019-02-05T13:20:55.059Z,10.80
2019-02-05T13:23:59.253Z,10.80
2019-02-05T13:27:03.343Z,10.80
2019-02-05T13:30:09.239Z,10.70
2019-02-05T13:33:14.739Z,10.70
2019-02-05T13:36:18.874Z,10.70
2019-02-05T13:39:23.032Z,10.60
2019-02-05T13:42:27.249Z,10.50
2019-02-05T13:45:33.636Z,10.40
2019-02-05T13:48:37.812Z,10.40
2019-02-05T13:51:41.976Z,10.30
2019-02-05T13:54:46.188Z,10.20
2019-02-05T13:57:50.478Z,10.10
2019-02-05T14:00:55.734Z,10.00
2019-02-05T14:03:59.906Z,9.90
2019-02-05T14:07:05.157Z,9.80
2019-02-05T14:10:12.708Z,9.70
2019-02-05T14:13:19.951Z,9.60
2019-02-05T14:16:24.318Z,9.60
2019-02-05T14:19:28.510Z,9.50
2019-02-05T14:22:32.676Z,9.40
2019-02-05T14:25:38.917Z,9.30
2019-02-05T14:28:43.087Z,9.20
2019-02-05T14:31:47.290Z,9.10
2019-02-05T14:34:51.379Z,9.00
2019-02-05T14:37:55.456Z,8.90
2019-02-05T14:40:59.596Z,8.70
2019-02-05T14:44:03.888Z,8.60
2019-02-05T14:47:08.043Z,8.50
2019-02-05T14:50:15.956Z,8.40
2019-02-05T14:53:20.120Z,8.20
2019-02-05T14:56:24.242Z,8.10
2019-02-05T14:59:28.413Z,7.90
2019-02-05T15:02:32.878Z,7.80
2019-02-05T15:05:37.119Z,7.60
2019-02-05T15:08:41.426Z,7.40
2019-02-05T15:11:45.538Z,7.20
2019-02-05T15:14:49.646Z,7.10
2019-02-05T15:17:53.829Z,6.90
2019-02-05T15:20:58.096Z,6.80
2019-02-05T15:24:02.251Z,6.60
2019-02-05T15:27:06.574Z,6.40
2019-02-05T15:30:14.660Z,6.30
2019-02-05T15:33:25.559Z,6.00
2019-02-05T15:36:34.405Z,5.80
2019-02-05T15:39:38.780Z,5.70
2019-02-05T15:42:42.950Z,5.50
2019-02-05T15:45:47.128Z,5.40
2019-02-05T15:48:51.204Z,5.30
2019-02-05T15:51:55.495Z,5.10
2019-02-05T15:54:59.588Z,5.00
2019-02-05T15:58:04.020Z,4.90
2019-02-05T16:01:08.202Z,4.70
2019-02-05T16:04:13.188Z,4.60
2019-02-05T16:07:17.380Z,4.50
2019-02-05T16:10:23.788Z,4.40
2019-02-05T16:13:28.076Z,4.30
2019-02-05T16:16:32.720Z,4.20
2019-02-05T16:19:37.837Z,4.00
2019-02-05T16:22:42.411Z,3.90
2019-02-05T16:25:46.585Z,3.80
2019-02-05T16:28:50.849Z,3.80
2019-02-05T16:31:55.633Z,3.70
2019-02-05T16:34:59.920Z,3.60
2019-02-05T16:38:04.728Z,3.50
2019-02-05T16:41:09.275Z,3.30
2019-02-05T16:44:14.743Z,3.20
2019-02-05T16:47:19.269Z,3.10
2019-02-05T16:50:29.280Z,3.00
2019-02-05T16:53:34.014Z,3.00
2019-02-05T16:56:41.000Z,2.80
2019-02-05T16:59:46.545Z,2.80
2019-02-05T17:02:50.802Z,2.70
2019-02-05T17:05:58.640Z,2.70
2019-02-05T17:09:04.423Z,2.60
2019-02-05T17:12:08.631Z,2.50
2019-02-05T17:15:14.876Z,2.40
2019-02-05T17:18:23.556Z,2.30
2019-02-05T17:21:24.988Z,2.20
2019-02-05T17:24:30.466Z,2.20
2019-02-05T17:27:34.569Z,2.10
2019-02-05T17:30:39.892Z,2.10
2019-02-05T17:33:44.133Z,1.90
2019-02-05T17:36:49.264Z,1.90
2019-02-05T17:39:53.479Z,1.80
2019-02-05T17:42:57.867Z,1.80
2019-02-05T17:46:01.981Z,1.80
2019-02-05T17:49:06.294Z,1.70
2019-02-05T17:52:10.586Z,1.60
2019-02-05T17:55:15.001Z,1.60
2019-02-05T17:58:19.112Z,1.60
2019-02-05T18:01:23.371Z,1.50
2019-02-05T18:04:27.664Z,1.50
2019-02-05T18:07:32.057Z,1.40
2019-02-05T18:10:36.690Z,1.40
2019-02-05T18:13:40.933Z,1.40
2019-02-05T18:16:45.548Z,1.30
2019-02-05T18:19:49.845Z,1.30
2019-02-05T18:22:54.066Z,1.20
2019-02-05T18:25:58.278Z,1.20
2019-02-05T18:29:02.589Z,1.30
2019-02-05T18:32:07.030Z,1.20
2019-02-05T18:35:11.376Z,1.20
2019-02-05T18:38:16.259Z,1.10
2019-02-05T18:41:23.005Z,1.10
2019-02-05T18:44:28.486Z,1.10
2019-02-05T18:47:35.897Z,1.00
2019-02-05T18:50:40.289Z,1.00
2019-02-05T18:53:46.136Z,1.00
2019-02-05T18:57:00.344Z,0.90
2019-02-05T19:00:08.329Z,0.90
2019-02-05T19:03:19.736Z,0.80
2019-02-05T19:06:34.338Z,0.80
2019-02-05T19:09:39.746Z,0.80
2019-02-05T19:12:49.148Z,0.80
2019-02-05T19:16:03.859Z,0.80
2019-02-05T19:19:15.963Z,0.70
2019-02-05T19:22:22.899Z,0.70
2019-02-05T19:25:50.062Z,0.80
2019-02-05T19:28:55.383Z,0.70
2019-02-05T19:32:00.740Z,0.70
2019-02-05T19:35:07.485Z,0.60
2019-02-05T19:38:15.879Z,0.60
2019-02-05T19:41:20.573Z,0.50
2019-02-05T19:44:26.131Z,0.50
2019-02-05T19:47:34.203Z,0.50
2019-02-05T19:50:39.092Z,0.50
2019-02-05T19:53:45.144Z,0.50
2019-02-05T19:56:50.643Z,0.50
2019-02-05T19:59:57.939Z,0.40
2019-02-05T20:03:07.281Z,0.40
2019-02-05T20:06:17.036Z,0.40
2019-02-05T20:09:25.013Z,0.40
2019-02-05T20:12:32.106Z,0.30
2019-02-05T20:15:38.435Z,0.30
2019-02-05T20:18:44.331Z,0.30
2019-02-05T20:21:49.452Z,0.30
2019-02-05T20:24:55.844Z,0.30
2019-02-05T20:28:02.853Z,0.30
2019-02-05T20:31:07.050Z,0.30
2019-02-05T20:34:19.833Z,0.20
2019-02-05T20:37:24.275Z,0.20
2019-02-05T20:40:28.545Z,0.20
2019-02-05T20:43:32.894Z,0.20
2019-02-05T20:46:37.119Z,0.20
2019-02-05T20:49:41.792Z,0.20
2019-02-05T20:52:46.349Z,0.10
2019-02-05T20:55:51.136Z,0.10
2019-02-05T20:58:56.937Z,0.20
2019-02-05T21:02:01.109Z,0.10
2019-02-05T21:05:06.764Z,0.10
2019-02-05T21:08:11.177Z,0.20
2019-02-05T21:11:15.628Z,0.10
2019-02-05T21:14:20.133Z,0.10
2019-02-05T21:17:24.614Z,0.10
2019-02-05T21:20:31.733Z,0.10
2019-02-05T21:23:34.750Z,0.00
2019-02-05T21:26:39.072Z,0.10
2019-02-05T21:29:43.308Z,0.10
2019-02-05T21:32:48.092Z,0.10
2019-02-05T21:35:52.426Z,0.10
2019-02-05T21:38:59.830Z,0.10
2019-02-05T21:42:04.913Z,0.10
2019-02-05T21:45:11.416Z,0.10
2019-02-05T21:48:15.588Z,0.10
2019-02-05T21:51:20.096Z,0.20
2019-02-05T21:54:24.279Z,0.20
2019-02-05T21:57:28.495Z,0.20
2019-02-05T22:00:33.271Z,0.20
2019-02-05T22:03:37.495Z,0.20
2019-02-05T22:06:42.032Z,0.30
2019-02-05T22:09:46.553Z,0.30
2019-02-05T22:12:50.810Z,0.30
2019-02-05T22:15:57.445Z,0.30
2019-02-05T22:19:01.610Z,0.40
2019-02-05T22:22:06.154Z,0.40
2019-02-05T22:25:14.222Z,0.40
2019-02-05T22:28:20.565Z,0.40
2019-02-05T22:31:24.269Z,0.40
2019-02-05T22:34:38.892Z,0.30
2019-02-05T22:37:34.329Z,0.40
2019-02-05T22:40:38.530Z,0.40
2019-02-05T22:43:43.025Z,0.40
2019-02-05T22:46:47.231Z,0.40
2019-02-05T22:49:51.403Z,0.30
2019-02-05T22:52:55.626Z,0.40
2019-02-05T22:55:59.831Z,0.40
2019-02-05T22:59:04.040Z,0.40
2019-02-05T23:02:08.239Z,0.40
2019-02-05T23:05:53.642Z,0.30
2019-02-05T23:09:01.256Z,0.30
2019-02-05T23:12:33.399Z,0.40
2019-02-05T23:15:40.625Z,0.40
2019-02-05T23:18:45.036Z,0.40
2019-02-05T23:21:49.224Z,0.40
2019-02-05T23:24:53.447Z,0.40
2019-02-05T23:27:58.086Z,0.50
2019-02-05T23:31:02.285Z,0.50
2019-02-05T23:34:06.439Z,0.50
2019-02-05T23:37:11.057Z,0.50
2019-02-05T23:40:15.252Z,0.50
2019-02-05T23:43:19.511Z,0.50
2019-02-05T23:46:23.998Z,0.50
2019-02-05T23:49:28.191Z,0.50
2019-02-05T23:52:32.356Z,0.60
2019-02-05T23:55:36.959Z,0.60
2019-02-05T23:58:41.216Z,0.60
